Time;durP1;ratioP1;P1;durP2;ratioP2;P2;SDS_P1;SDS_P2;PMS_P1;PMS_P2;Temp;Humidity;BMP_temperature;BMP_pressure;BME280_temperature;BME280_humidity;BME280_pressure;Samples;Min_cycle;Max_cycle;Signal;HPM_P1;HPM_P2
2022/05/28 00:02:14;;;;;;;2.30;1.73;;;14.10;99.90;;;;;;5177628;28;20056;-75
2022/05/28 00:04:46;;;;;;;3.97;1.80;;;14.10;99.90;;;;;;5157041;28;20057;-76
2022/05/28 00:07:19;;;;;;;3.75;2.25;;;14.00;99.90;;;;;;5173607;28;20060;-75
2022/05/28 00:09:51;;;;;;;2.55;2.03;;;13.90;99.90;;;;;;5178019;28;20048;-76
2022/05/28 00:12:29;;;;;;;4.35;1.80;;;14.00;99.90;;;;;;5170319;28;20620;-76
2022/05/28 00:15:01;;;;;;;2.38;1.80;;;13.90;99.90;;;;;;5176184;28;20053;-76
2022/05/28 00:17:34;;;;;;;4.55;1.80;;;14.00;99.90;;;;;;5159388;28;22883;-76
2022/05/28 00:20:08;;;;;;;4.30;1.83;;;13.90;99.90;;;;;;5172591;28;20049;-75
2022/05/28 00:22:43;;;;;;;2.58;1.85;;;14.00;99.90;;;;;;5151662;28;20064;-75
2022/05/28 00:25:17;;;;;;;3.15;1.88;;;14.00;99.90;;;;;;5140887;28;20049;-76
2022/05/28 00:27:50;;;;;;;7.05;1.83;;;14.00;99.90;;;;;;5170714;28;21866;-75
2022/05/28 00:30:22;;;;;;;3.30;1.88;;;14.00;99.90;;;;;;5171868;28;20044;-75
2022/05/28 00:32:55;;;;;;;2.17;1.85;;;13.90;99.90;;;;;;5174395;28;20047;-75
2022/05/28 00:35:27;;;;;;;2.85;2.30;;;13.80;99.90;;;;;;5173434;28;20056;-76
2022/05/28 00:38:00;;;;;;;2.03;1.83;;;13.70;99.90;;;;;;5174472;28;20041;-75
2022/05/28 00:40:32;;;;;;;2.13;1.92;;;13.70;99.90;;;;;;5151469;28;20057;-75
2022/05/28 00:43:05;;;;;;;2.23;1.90;;;13.60;99.90;;;;;;5168285;28;20056;-75
2022/05/28 00:45:39;;;;;;;2.57;1.63;;;13.60;99.90;;;;;;5164817;28;20078;-75
2022/05/28 00:48:15;;;;;;;7.97;2.30;;;13.60;99.90;;;;;;5172925;28;21011;-75
2022/05/28 00:50:47;;;;;;;3.38;1.88;;;13.40;99.90;;;;;;5170835;28;20057;-75
2022/05/28 00:53:20;;;;;;;1.83;1.73;;;13.50;99.90;;;;;;5167207;28;20474;-74
2022/05/28 00:55:53;;;;;;;3.30;1.88;;;13.50;99.90;;;;;;5151941;28;20064;-75
2022/05/28 00:58:25;;;;;;;3.17;2.10;;;13.40;99.90;;;;;;5148998;28;20524;-75
2022/05/28 01:00:58;;;;;;;2.63;2.10;;;13.30;99.90;;;;;;5189342;28;20075;-75
2022/05/28 01:03:50;;;;;;;3.30;2.37;;;13.30;99.90;;;;;;5174256;28;20590;-75
2022/05/28 01:06:33;;;;;;;2.92;2.00;;;13.30;99.90;;;;;;5165870;28;20060;-75
2022/05/28 01:09:17;;;;;;;6.63;2.05;;;13.30;99.90;;;;;;5170920;28;20049;-75
2022/05/28 01:11:57;;;;;;;;;;;13.30;99.90;;;;;;5162572;28;20300;-75
2022/05/28 01:14:45;;;;;;;3.72;2.75;;;13.30;99.90;;;;;;5170330;28;19924;-75
2022/05/28 01:17:29;;;;;;;2.45;2.17;;;13.30;99.90;;;;;;5160573;28;20045;-75
2022/05/28 01:20:20;;;;;;;3.47;2.05;;;13.30;99.90;;;;;;5155714;28;20784;-75
2022/05/28 01:23:31;;;;;;;4.28;1.90;;;13.30;99.90;;;;;;5160883;28;20066;-75
2022/05/28 01:26:38;;;;;;;4.13;1.92;;;13.30;99.90;;;;;;5169199;28;20080;-75
2022/05/28 01:29:15;;;;;;;3.03;2.22;;;13.20;99.90;;;;;;5148404;28;20782;-75
2022/05/28 01:31:48;;;;;;;3.00;1.90;;;13.30;99.90;;;;;;5151450;28;20496;-75
2022/05/28 01:34:21;;;;;;;2.87;1.93;;;13.30;99.90;;;;;;5156696;28;20050;-76
2022/05/28 01:36:55;;;;;;;2.20;2.00;;;13.30;99.90;;;;;;5165563;28;20037;-75
2022/05/28 01:39:28;;;;;;;4.35;2.33;;;13.30;99.90;;;;;;5175510;28;20046;-76
2022/05/28 01:42:02;;;;;;;2.70;1.80;;;13.30;99.90;;;;;;5177202;28;20079;-75
2022/05/28 01:44:38;;;;;;;3.47;2.05;;;13.30;99.90;;;;;;5152034;28;20068;-75
2022/05/28 01:47:13;;;;;;;3.05;2.00;;;13.30;99.90;;;;;;5162210;28;20061;-75
2022/05/28 01:49:46;;;;;;;3.25;2.20;;;13.40;99.90;;;;;;5173532;28;20041;-76
2022/05/28 01:52:21;;;;;;;2.88;2.30;;;13.40;99.90;;;;;;5167211;28;21449;-75
2022/05/28 01:54:56;;;;;;;2.75;2.35;;;13.40;99.90;;;;;;5176973;28;20400;-75
2022/05/28 01:57:29;;;;;;;4.25;2.53;;;13.40;99.90;;;;;;5177778;28;20053;-75
2022/05/28 02:00:01;;;;;;;3.47;2.37;;;13.40;99.90;;;;;;5164578;28;20479;-75
2022/05/28 02:02:36;;;;;;;3.47;2.35;;;13.40;99.90;;;;;;5170413;28;20291;-75
2022/05/28 02:05:10;;;;;;;3.33;2.40;;;13.50;99.90;;;;;;5149376;28;20060;-75
2022/05/28 02:07:42;;;;;;;5.57;2.72;;;13.30;99.90;;;;;;5174945;28;20425;-75
2022/05/28 02:10:18;;;;;;;3.55;2.28;;;13.30;99.90;;;;;;5178308;28;20053;-76
2022/05/28 02:13:02;;;;;;;4.35;2.92;;;13.30;99.90;;;;;;5175393;28;20627;-75
2022/05/28 02:15:59;;;;;;;4.10;2.35;;;13.30;99.90;;;;;;5141889;28;20413;-75
2022/05/28 02:18:57;;;;;;;3.92;2.72;;;13.30;99.90;;;;;;5153378;28;20073;-75
2022/05/28 02:21:48;;;;;;;6.50;2.58;;;13.20;99.90;;;;;;5177975;28;20054;-76
2022/05/28 02:24:33;;;;;;;5.35;3.00;;;13.30;99.90;;;;;;5175329;28;20064;-76
2022/05/28 02:27:14;;;;;;;4.45;2.80;;;13.40;99.90;;;;;;5176129;28;20061;-76
2022/05/28 02:29:46;;;;;;;3.88;2.63;;;13.40;99.90;;;;;;5157857;28;20923;-76
2022/05/28 02:32:22;;;;;;;3.08;2.58;;;13.40;99.90;;;;;;5167510;28;20049;-75
2022/05/28 02:34:54;;;;;;;3.00;2.25;;;13.40;99.90;;;;;;5172798;28;20413;-76
2022/05/28 02:37:27;;;;;;;4.55;2.88;;;13.40;99.90;;;;;;5158921;28;20057;-76
2022/05/28 02:40:00;;;;;;;4.93;3.22;;;13.40;99.90;;;;;;5177287;28;20045;-75
2022/05/28 02:42:33;;;;;;;6.13;3.78;;;13.30;99.90;;;;;;5172621;28;20045;-76
2022/05/28 02:45:06;;;;;;;4.82;3.28;;;13.30;99.90;;;;;;5177043;28;20527;-75
2022/05/28 02:47:38;;;;;;;5.20;3.38;;;13.30;99.90;;;;;;5173360;28;20061;-75
2022/05/28 02:50:11;;;;;;;5.80;3.75;;;13.30;99.90;;;;;;5169501;28;20048;-75
2022/05/28 02:52:43;;;;;;;4.93;3.58;;;13.30;99.90;;;;;;5171608;28;20509;-76
2022/05/28 02:55:16;;;;;;;6.15;3.45;;;13.30;99.90;;;;;;5164238;28;20048;-75
2022/05/28 02:57:49;;;;;;;7.07;3.00;;;13.30;99.90;;;;;;5161899;28;20049;-75
2022/05/28 03:00:21;;;;;;;7.60;3.50;;;13.30;99.90;;;;;;5177730;28;20060;-75
2022/05/28 03:02:53;;;;;;;4.90;3.10;;;13.30;99.90;;;;;;5169920;28;20049;-75
2022/05/28 03:05:26;;;;;;;5.80;3.15;;;13.30;99.90;;;;;;5177562;28;20052;-75
2022/05/28 03:07:59;;;;;;;4.03;3.57;;;13.30;99.90;;;;;;5182788;28;20072;-75
2022/05/28 03:10:31;;;;;;;6.45;4.00;;;13.30;99.90;;;;;;5173308;28;20057;-76
2022/05/28 03:13:03;;;;;;;7.05;3.58;;;13.30;99.90;;;;;;5177384;28;20053;-75
2022/05/28 03:15:36;;;;;;;4.85;3.28;;;13.30;99.90;;;;;;5176056;28;20068;-75
2022/05/28 03:18:08;;;;;;;5.13;3.92;;;13.30;99.90;;;;;;5180795;28;20041;-75
2022/05/28 03:20:41;;;;;;;8.00;4.30;;;13.30;99.90;;;;;;5167706;28;20056;-75
2022/05/28 03:23:13;;;;;;;8.37;4.80;;;13.30;99.90;;;;;;5168786;28;20160;-76
2022/05/28 03:25:46;;;;;;;6.97;4.35;;;13.20;99.90;;;;;;5169723;28;20053;-75
2022/05/28 03:28:18;;;;;;;5.47;3.83;;;13.20;99.90;;;;;;5176479;28;20956;-75
2022/05/28 03:30:51;;;;;;;7.28;5.00;;;13.20;99.90;;;;;;5166706;28;20053;-75
2022/05/28 03:33:23;;;;;;;7.63;4.90;;;13.30;99.90;;;;;;5174997;28;20065;-76
2022/05/28 03:35:56;;;;;;;8.18;4.90;;;13.20;99.90;;;;;;5190669;28;20080;-76
2022/05/28 03:38:28;;;;;;;6.78;4.30;;;13.20;99.90;;;;;;5195508;28;20955;-76
2022/05/28 03:41:01;;;;;;;8.77;4.93;;;13.30;99.90;;;;;;5174027;28;20060;-75
2022/05/28 03:43:34;;;;;;;10.75;4.90;;;13.30;99.90;;;;;;5188635;28;20041;-76
2022/05/28 03:46:22;;;;;;;9.52;4.80;;;13.20;99.90;;;;;;5192505;28;20049;-76
2022/05/28 03:48:57;;;;;;;8.18;4.95;;;13.20;99.90;;;;;;5178377;28;20057;-76
2022/05/28 03:51:30;;;;;;;6.57;4.47;;;13.20;99.90;;;;;;5201397;28;20072;-76
2022/05/28 03:54:03;;;;;;;7.57;4.15;;;13.20;99.90;;;;;;5197488;28;20086;-76
2022/05/28 03:56:38;;;;;;;8.35;4.80;;;13.20;99.90;;;;;;5177886;28;20076;-76
2022/05/28 03:59:12;;;;;;;12.18;5.75;;;13.20;99.90;;;;;;5196722;28;20056;-76
2022/05/28 04:01:44;;;;;;;7.90;4.18;;;13.20;99.90;;;;;;5196465;28;20040;-75
2022/05/28 04:04:16;;;;;;;11.57;5.00;;;13.20;99.90;;;;;;5200067;28;20132;-75
2022/05/28 04:06:49;;;;;;;10.82;4.72;;;13.10;99.90;;;;;;5190672;28;20056;-74
2022/05/28 04:09:21;;;;;;;13.68;5.60;;;13.20;99.90;;;;;;5201154;28;20057;-76
2022/05/28 04:11:54;;;;;;;10.35;4.60;;;13.10;99.90;;;;;;5192809;28;20063;-76
2022/05/28 04:14:26;;;;;;;10.32;4.57;;;13.00;99.90;;;;;;5188971;28;20055;-75
2022/05/28 04:16:58;;;;;;;8.50;4.68;;;13.00;99.90;;;;;;5195963;28;20839;-76
2022/05/28 04:19:31;;;;;;;11.15;5.28;;;13.10;99.90;;;;;;5184060;28;20072;-76
2022/05/28 04:22:04;;;;;;;10.75;4.95;;;13.20;99.90;;;;;;5192480;28;20056;-75
2022/05/28 04:24:37;;;;;;;11.65;4.80;;;13.10;99.90;;;;;;5174549;28;20060;-76
2022/05/28 04:27:09;;;;;;;6.85;4.57;;;13.10;99.90;;;;;;5194981;28;20045;-76
2022/05/28 04:29:42;;;;;;;16.52;4.57;;;13.20;99.90;;;;;;5197093;28;20037;-74
2022/05/28 04:32:14;;;;;;;9.13;4.47;;;13.20;99.90;;;;;;5168377;28;20056;-75
2022/05/28 04:34:47;;;;;;;18.30;5.05;;;13.10;99.90;;;;;;5180661;28;20345;-76
2022/05/28 04:37:19;;;;;;;11.82;4.78;;;13.10;99.90;;;;;;5187247;28;20046;-75
2022/05/28 04:39:51;;;;;;;12.23;4.75;;;13.10;99.90;;;;;;5182533;28;20056;-76
2022/05/28 04:42:24;;;;;;;7.53;4.40;;;13.10;99.90;;;;;;5158043;28;20414;-75
2022/05/28 04:44:57;;;;;;;7.30;3.75;;;13.20;99.90;;;;;;5163339;28;20045;-76
2022/05/28 04:47:30;;;;;;;13.30;4.60;;;13.20;99.90;;;;;;5175054;28;20052;-76
2022/05/28 04:50:03;;;;;;;9.38;4.63;;;13.20;99.90;;;;;;5162635;28;20049;-76
2022/05/28 04:52:38;;;;;;;12.35;4.50;;;13.20;99.90;;;;;;5179562;28;20053;-76
2022/05/28 04:55:11;;;;;;;9.98;4.80;;;13.30;99.90;;;;;;5184008;28;20049;-76
2022/05/28 04:57:44;;;;;;;18.13;4.88;;;13.30;99.90;;;;;;5195685;28;20045;-76
2022/05/28 05:00:18;;;;;;;12.68;4.88;;;13.30;99.90;;;;;;5191423;28;20064;-75
2022/05/28 05:02:51;;;;;;;10.02;5.28;;;13.20;99.00;;;;;;5191554;28;20064;-76
2022/05/28 05:05:24;;;;;;;12.18;4.78;;;13.30;99.90;;;;;;5195289;28;20068;-76
2022/05/28 05:07:56;;;;;;;9.65;4.90;;;13.30;98.60;;;;;;5196856;28;20049;-75
2022/05/28 05:10:29;;;;;;;11.85;4.60;;;13.30;98.70;;;;;;5193204;28;20045;-76
2022/05/28 05:13:02;;;;;;;11.70;4.88;;;13.30;98.60;;;;;;5185455;28;20056;-76
2022/05/28 05:15:34;;;;;;;9.90;5.43;;;13.40;98.40;;;;;;5196065;28;20056;-76
2022/05/28 05:18:07;;;;;;;11.52;5.30;;;13.50;98.80;;;;;;5190578;28;20307;-76
2022/05/28 05:20:40;;;;;;;11.15;5.00;;;13.50;98.30;;;;;;5175649;28;20053;-76
2022/05/28 05:23:12;;;;;;;14.07;5.38;;;13.50;97.80;;;;;;5189905;28;20509;-76
2022/05/28 05:25:44;;;;;;;10.77;4.90;;;13.60;97.30;;;;;;5190060;28;20457;-76
2022/05/28 05:28:17;;;;;;;12.52;5.00;;;13.50;96.40;;;;;;5194740;28;20045;-75
2022/05/28 05:30:49;;;;;;;11.88;5.32;;;13.40;96.70;;;;;;5194222;28;20042;-76
2022/05/28 05:33:21;;;;;;;9.93;4.38;;;13.50;97.40;;;;;;5195777;28;20404;-76
2022/05/28 05:35:54;;;;;;;9.98;4.60;;;13.60;97.10;;;;;;5189189;28;20049;-76
2022/05/28 05:38:26;;;;;;;11.50;4.72;;;13.70;96.20;;;;;;5186352;28;21004;-76
2022/05/28 05:40:59;;;;;;;16.23;4.63;;;13.80;94.40;;;;;;5195609;28;20050;-76
2022/05/28 05:43:32;;;;;;;13.65;4.57;;;13.60;92.60;;;;;;5192817;28;20041;-76
2022/05/28 05:46:04;;;;;;;12.55;3.50;;;13.50;91.40;;;;;;5196237;28;20041;-76
2022/05/28 05:48:37;;;;;;;15.20;4.22;;;13.40;90.40;;;;;;5202222;28;20052;-78
2022/05/28 05:51:12;;;;;;;11.55;3.65;;;13.20;88.90;;;;;;5197242;28;21614;-77
2022/05/28 05:53:45;;;;;;;16.05;4.32;;;13.20;88.90;;;;;;5189404;28;20049;-75
2022/05/28 05:56:17;;;;;;;13.70;4.28;;;13.20;90.00;;;;;;5175789;28;20049;-75
2022/05/28 05:58:50;;;;;;;6.60;3.47;;;13.20;89.20;;;;;;5194685;28;20414;-75
2022/05/28 06:01:26;;;;;;;9.20;3.15;;;13.20;85.50;;;;;;5191960;28;20463;-76
2022/05/28 06:03:59;;;;;;;8.23;3.17;;;13.20;83.40;;;;;;5189235;28;20037;-75
2022/05/28 06:06:31;;;;;;;12.65;3.55;;;13.20;82.20;;;;;;5191596;28;20116;-75
2022/05/28 06:09:05;;;;;;;13.10;3.47;;;13.20;81.50;;;;;;5190954;28;20045;-78
2022/05/28 06:11:37;;;;;;;6.90;2.90;;;13.20;81.50;;;;;;5192946;28;20060;-78
2022/05/28 06:14:10;;;;;;;11.43;3.55;;;13.30;81.40;;;;;;5191856;28;20563;-76
2022/05/28 06:16:42;;;;;;;10.73;3.83;;;13.30;81.20;;;;;;5190138;28;20060;-76
2022/05/28 06:19:14;;;;;;;11.13;3.75;;;13.30;80.60;;;;;;5171171;28;20489;-76
2022/05/28 06:21:47;;;;;;;10.77;3.47;;;13.40;81.00;;;;;;5188599;28;20045;-75
2022/05/28 06:24:19;;;;;;;16.55;4.28;;;13.50;80.70;;;;;;5195706;28;20052;-76
2022/05/28 06:26:51;;;;;;;11.48;4.07;;;13.40;80.80;;;;;;5179598;28;20045;-75
2022/05/28 06:29:24;;;;;;;9.50;3.42;;;13.50;81.50;;;;;;5197865;28;20060;-76
2022/05/28 06:31:56;;;;;;;10.88;3.70;;;13.50;82.10;;;;;;5193858;28;20049;-76
2022/05/28 06:34:28;;;;;;;8.27;2.97;;;13.60;81.70;;;;;;5190230;28;20033;-76
2022/05/28 06:37:11;;;;;;;10.40;3.45;;;13.70;80.80;;;;;;5198907;28;20161;-76
2022/05/28 06:39:44;;;;;;;13.82;3.67;;;13.70;80.20;;;;;;5189263;28;20049;-76
2022/05/28 06:42:16;;;;;;;12.32;4.05;;;13.70;79.40;;;;;;5200137;28;20377;-76
2022/05/28 06:44:49;;;;;;;11.85;3.08;;;13.40;74.70;;;;;;5200127;28;20064;-76
2022/05/28 06:47:22;;;;;;;14.43;3.28;;;13.50;77.60;;;;;;5199240;28;20056;-76
2022/05/28 06:52:45;;;;;;;14.13;3.50;;;13.60;75.40;;;;;;5198122;28;20073;-76
2022/05/28 06:55:18;;;;;;;16.80;4.30;;;13.60;75.40;;;;;;5183979;28;20049;-76
2022/05/28 06:57:51;;;;;;;16.13;3.70;;;13.70;76.00;;;;;;5186344;28;20412;-76
2022/05/28 07:00:23;;;;;;;13.43;3.50;;;13.80;75.00;;;;;;5194790;28;20060;-77
2022/05/28 07:02:56;;;;;;;13.48;3.15;;;13.80;74.50;;;;;;5193496;28;20488;-76
2022/05/28 07:05:28;;;;;;;13.38;3.60;;;13.80;75.50;;;;;;5192723;28;20053;-76
2022/05/28 07:08:01;;;;;;;9.25;3.00;;;13.90;75.10;;;;;;5176220;28;20068;-76
2022/05/28 07:10:38;;;;;;;17.38;3.85;;;14.00;74.70;;;;;;5196398;28;20052;-76
2022/05/28 07:13:11;;;;;;;14.48;4.25;;;13.80;73.80;;;;;;5196885;28;20049;-75
2022/05/28 07:15:43;;;;;;;10.68;2.95;;;13.80;73.70;;;;;;5179216;28;20041;-76
2022/05/28 07:18:16;;;;;;;7.18;3.17;;;13.90;74.60;;;;;;5198821;28;20298;-74
2022/05/28 07:20:49;;;;;;;15.05;3.75;;;14.00;74.50;;;;;;5194565;28;20050;-75
2022/05/28 07:23:25;;;;;;;9.43;3.75;;;13.90;73.80;;;;;;5181216;28;20046;-75
2022/05/28 07:26:03;;;;;;;15.63;4.30;;;14.00;75.40;;;;;;5199987;28;20038;-75
2022/05/28 07:28:37;;;;;;;12.65;4.25;;;14.10;74.80;;;;;;5181974;28;20056;-76
2022/05/28 07:31:18;;;;;;;10.65;3.72;;;14.30;74.70;;;;;;5197628;28;20052;-76
2022/05/28 07:33:51;;;;;;;10.95;3.05;;;14.40;73.70;;;;;;5194968;28;20057;-75
2022/05/28 07:36:24;;;;;;;9.63;3.78;;;14.50;73.50;;;;;;5179056;28;20060;-75
2022/05/28 07:38:56;;;;;;;13.07;4.00;;;14.50;73.60;;;;;;5194589;28;20056;-76
2022/05/28 07:41:29;;;;;;;12.82;3.80;;;14.70;73.10;;;;;;5198510;28;20064;-75
2022/05/28 07:44:01;;;;;;;11.27;3.55;;;14.70;72.40;;;;;;5191369;28;20054;-75
2022/05/28 07:46:34;;;;;;;10.20;3.42;;;14.40;72.80;;;;;;5194408;28;20566;-76
2022/05/28 07:49:07;;;;;;;9.65;3.70;;;14.60;73.00;;;;;;5197105;28;20512;-76
2022/05/28 07:51:40;;;;;;;9.68;3.72;;;14.50;72.10;;;;;;5168886;28;20052;-76
2022/05/28 07:54:13;;;;;;;15.43;4.25;;;14.70;72.90;;;;;;5194657;28;20049;-76
2022/05/28 07:56:45;;;;;;;12.30;4.30;;;14.50;71.80;;;;;;5195848;28;20064;-76
2022/05/28 07:59:17;;;;;;;8.23;3.83;;;14.50;71.30;;;;;;5193195;28;20036;-75
2022/05/28 08:01:50;;;;;;;11.70;3.90;;;14.30;71.60;;;;;;5181136;28;20045;-76
2022/05/28 08:04:23;;;;;;;10.23;3.90;;;14.50;72.30;;;;;;5196819;28;20049;-75
2022/05/28 08:06:55;;;;;;;9.45;4.32;;;14.60;71.30;;;;;;5198414;28;20046;-76
2022/05/28 08:09:28;;;;;;;15.20;4.78;;;14.60;71.30;;;;;;5197330;28;20052;-76
2022/05/28 08:12:00;;;;;;;11.88;3.35;;;14.40;71.60;;;;;;5181749;28;20052;-76
2022/05/28 08:14:32;;;;;;;11.77;3.97;;;14.90;73.50;;;;;;5196278;28;20072;-76
2022/05/28 08:17:05;;;;;;;7.53;2.88;;;15.20;70.70;;;;;;5197283;28;20064;-76
2022/05/28 08:19:37;;;;;;;6.43;3.55;;;14.90;65.20;;;;;;5196996;28;20049;-76
2022/05/28 08:25:03;;;;;;;7.60;3.30;;;14.80;66.40;;;;;;5190481;28;20064;-76
2022/05/28 08:27:36;;;;;;;11.47;3.47;;;14.80;65.30;;;;;;5179209;28;20049;-76
2022/05/28 08:30:09;;;;;;;7.53;3.17;;;14.80;64.50;;;;;;5188393;28;20060;-76
2022/05/28 08:32:42;;;;;;;8.57;2.70;;;14.90;67.60;;;;;;5191649;28;20044;-76
2022/05/28 08:35:21;;;;;;;11.23;3.42;;;15.00;65.30;;;;;;5186767;28;20590;-76
2022/05/28 08:37:54;;;;;;;8.30;3.20;;;15.10;65.50;;;;;;5192283;28;20046;-75
2022/05/28 08:40:26;;;;;;;7.30;2.53;;;15.10;63.90;;;;;;5192499;28;20906;-75
2022/05/28 08:43:00;;;;;;;8.40;2.80;;;15.20;62.70;;;;;;5188895;28;20587;-76
2022/05/28 08:45:32;;;;;;;;;;;15.30;62.80;;;;;;5190377;28;20056;-76
2022/05/28 08:48:06;;;;;;;9.05;2.78;;;15.50;64.20;;;;;;5191654;28;19932;-76
2022/05/28 08:50:46;;;;;;;;;;;15.60;62.30;;;;;;5170377;28;20639;-76
2022/05/28 08:53:23;;;;;;;10.57;3.10;;;15.30;58.70;;;;;;5162515;28;20943;-73
2022/05/28 08:55:58;;;;;;;14.02;3.28;;;15.00;61.90;;;;;;5187215;28;20045;-75
2022/05/28 08:58:33;;;;;;;8.38;2.70;;;15.10;64.80;;;;;;5177835;28;20060;-76
2022/05/28 09:01:14;;;;;;;12.27;3.45;;;15.30;64.30;;;;;;5188301;28;20052;-75
2022/05/28 09:03:54;;;;;;;10.70;3.38;;;15.40;62.30;;;;;;5194927;28;20571;-75
2022/05/28 09:06:46;;;;;;;12.00;2.88;;;15.40;64.70;;;;;;5189012;28;20068;-76
2022/05/28 09:09:24;;;;;;;10.82;3.20;;;15.70;61.80;;;;;;5184658;28;20053;-76
2022/05/28 09:12:03;;;;;;;8.98;3.10;;;15.80;62.50;;;;;;5200011;28;20046;-75
2022/05/28 09:14:38;;;;;;;15.43;2.22;;;15.90;63.20;;;;;;5199685;28;20056;-76
2022/05/28 09:17:32;;;;;;;7.22;2.50;;;15.70;61.30;;;;;;5202889;28;20051;-75
2022/05/28 09:20:07;;;;;;;6.93;2.00;;;15.70;61.40;;;;;;5181658;28;20513;-75
2022/05/28 09:22:40;;;;;;;7.47;2.60;;;15.60;59.30;;;;;;5201328;28;20053;-76
2022/05/28 09:25:16;;;;;;;9.23;2.55;;;15.40;59.50;;;;;;5203834;28;20045;-75
2022/05/28 09:28:11;;;;;;;8.32;2.22;;;15.30;61.50;;;;;;5201560;28;20052;-75
2022/05/28 09:30:43;;;;;;;9.27;2.35;;;15.40;62.20;;;;;;5202684;28;20038;-75
2022/05/28 09:33:40;;;;;;;5.43;2.00;;;15.50;61.90;;;;;;5198963;28;20057;-75
2022/05/28 09:36:27;;;;;;;10.43;2.42;;;15.70;59.30;;;;;;5184136;28;20670;-75
2022/05/28 09:39:21;;;;;;;3.95;1.75;;;15.80;58.50;;;;;;5194921;28;20052;-76
2022/05/28 09:42:08;;;;;;;7.72;2.00;;;15.70;59.30;;;;;;5196655;28;20052;-75
2022/05/28 09:44:43;;;;;;;8.82;1.83;;;15.80;56.80;;;;;;5186060;28;20045;-76
2022/05/28 09:47:19;;;;;;;6.40;1.55;;;15.90;57.90;;;;;;5198517;28;20045;-75
2022/05/28 09:49:57;;;;;;;5.13;1.75;;;16.00;58.20;;;;;;5185785;28;20052;-74
2022/05/28 09:52:34;;;;;;;7.88;1.90;;;16.00;57.50;;;;;;5199960;28;20497;-76
2022/05/28 09:55:19;;;;;;;4.88;1.40;;;16.20;58.00;;;;;;5189082;28;20061;-76
2022/05/28 09:57:56;;;;;;;8.90;1.67;;;16.20;56.60;;;;;;5194358;28;20053;-74
2022/05/28 10:00:29;;;;;;;6.38;1.65;;;16.20;55.30;;;;;;5198127;28;20550;-74
2022/05/28 10:05:57;;;;;;;4.40;1.63;;;16.50;56.10;;;;;;5195757;28;20086;-75
2022/05/28 10:08:33;;;;;;;5.03;1.60;;;16.30;55.80;;;;;;5193936;28;20057;-75
2022/05/28 10:11:12;;;;;;;2.85;1.40;;;16.50;56.60;;;;;;5195423;28;20513;-75
2022/05/28 10:13:47;;;;;;;5.63;1.30;;;16.60;55.60;;;;;;5192199;28;20056;-76
2022/05/28 10:16:25;;;;;;;3.30;1.38;;;16.80;57.40;;;;;;5198567;28;20060;-75
2022/05/28 10:19:27;;;;;;;2.00;1.05;;;16.70;54.50;;;;;;5196801;28;20060;-75
2022/05/28 10:22:03;;;;;;;4.60;1.10;;;16.90;54.70;;;;;;5195688;28;20638;-76
2022/05/28 10:24:43;;;;;;;5.75;1.83;;;17.00;56.10;;;;;;5182947;28;20057;-76
2022/05/28 10:27:47;;;;;;;4.15;1.30;;;16.90;54.90;;;;;;5192491;28;20064;-76
2022/05/28 10:30:30;;;;;;;7.78;2.13;;;17.20;57.00;;;;;;5187483;28;20053;-76
2022/05/28 10:33:24;;;;;;;5.53;1.40;;;17.60;55.30;;;;;;5198546;28;20052;-76
2022/05/28 10:36:07;;;;;;;;;;;17.60;52.20;;;;;;5190321;28;20537;-76
2022/05/28 10:38:39;;;;;;;5.32;1.40;;;17.90;54.90;;;;;;5197228;28;20296;-75
2022/05/28 10:41:26;;;;;;;5.60;1.38;;;18.10;53.90;;;;;;5178896;28;20061;-76
2022/05/28 10:43:58;;;;;;;10.65;1.90;;;18.20;53.20;;;;;;5197520;28;21113;-76
2022/05/28 10:46:49;;;;;;;5.97;1.60;;;18.00;52.30;;;;;;5196631;28;20531;-75
2022/05/28 10:49:39;;;;;;;3.28;1.30;;;18.10;55.30;;;;;;5197085;28;20063;-76
2022/05/28 10:52:32;;;;;;;7.50;2.13;;;18.60;55.00;;;;;;5184860;28;20055;-76
2022/05/28 10:55:08;;;;;;;4.40;1.75;;;18.80;53.10;;;;;;5160178;28;20053;-76
2022/05/28 10:58:03;;;;;;;4.13;1.75;;;18.40;51.50;;;;;;5179827;28;20045;-76
2022/05/28 11:01:05;;;;;;;3.92;1.23;;;18.50;52.00;;;;;;5199510;28;20045;-76
2022/05/28 11:04:13;;;;;;;5.70;1.77;;;19.00;51.10;;;;;;5182388;28;20045;-75
2022/05/28 11:07:11;;;;;;;4.50;1.67;;;19.00;49.00;;;;;;5196664;28;21351;-75
2022/05/28 11:09:52;;;;;;;3.60;1.42;;;19.50;50.90;;;;;;5199066;28;20037;-76
2022/05/28 11:12:35;;;;;;;3.95;1.63;;;19.40;50.30;;;;;;5182748;28;20056;-76
2022/05/28 11:15:17;;;;;;;2.90;1.30;;;19.50;50.40;;;;;;5196407;28;20064;-75
2022/05/28 11:17:53;;;;;;;4.07;1.48;;;19.60;49.90;;;;;;5191901;28;20054;-76
2022/05/28 11:20:58;;;;;;;4.63;1.60;;;19.80;51.00;;;;;;5198200;28;20049;-76
2022/05/28 11:24:00;;;;;;;5.63;1.80;;;20.20;51.30;;;;;;5184585;28;20052;-76
2022/05/28 11:26:40;;;;;;;3.53;1.63;;;20.20;50.10;;;;;;5204047;28;20054;-76
2022/05/28 11:29:26;;;;;;;4.60;1.58;;;20.60;50.30;;;;;;5202744;28;20052;-76
2022/05/28 11:32:05;;;;;;;4.00;1.67;;;20.90;50.40;;;;;;5202001;28;20049;-76
2022/05/28 11:34:46;;;;;;;7.13;2.15;;;21.40;48.20;;;;;;5201372;28;20061;-75
2022/05/28 11:37:34;;;;;;;4.30;1.42;;;21.60;48.30;;;;;;5199121;28;20505;-76
2022/05/28 11:40:18;;;;;;;5.85;1.50;;;21.40;46.40;;;;;;5185579;28;20056;-76
2022/05/28 11:43:14;;;;;;;5.70;1.60;;;21.30;45.10;;;;;;5203891;28;20045;-76
2022/05/28 11:46:17;;;;;;;5.55;1.80;;;20.90;47.30;;;;;;5202332;28;20049;-74
2022/05/28 11:52:11;;;;;;;3.78;1.30;;;21.20;46.70;;;;;;5202184;28;20053;-76
2022/05/28 11:54:52;;;;;;;3.70;1.20;;;21.20;46.10;;;;;;5202669;28;20053;-76
2022/05/28 11:57:30;;;;;;;5.20;1.52;;;21.20;45.70;;;;;;5189454;28;20061;-76
2022/05/28 12:00:07;;;;;;;5.75;1.60;;;21.10;46.80;;;;;;5203043;28;20444;-76
2022/05/28 12:02:57;;;;;;;5.65;1.33;;;21.40;48.20;;;;;;5205163;28;20041;-76
2022/05/28 12:05:52;;;;;;;6.90;1.58;;;21.10;46.40;;;;;;5202516;28;20037;-76
2022/05/28 12:08:42;;;;;;;5.35;1.60;;;21.30;46.90;;;;;;5175013;28;20045;-76
2022/05/28 12:11:59;;;;;;;3.70;1.63;;;21.50;47.10;;;;;;5180191;28;20049;-75
2022/05/28 12:14:37;;;;;;;3.35;1.27;;;21.10;45.80;;;;;;5206494;28;20075;-75
2022/05/28 12:17:22;;;;;;;4.80;1.45;;;21.40;46.00;;;;;;5204976;28;20616;-76
2022/05/28 12:19:57;;;;;;;6.22;1.55;;;21.50;45.60;;;;;;5202630;28;20053;-77
2022/05/28 12:22:41;;;;;;;4.50;1.85;;;22.10;45.20;;;;;;5206271;28;20481;-76
2022/05/28 12:25:16;;;;;;;;;;;21.40;45.00;;;;;;5206157;28;20060;-76
2022/05/28 12:27:55;;;;;;;3.78;1.17;;;21.20;44.50;;;;;;5187496;28;19925;-77
2022/05/28 12:30:48;;;;;;;2.85;1.35;;;21.60;43.90;;;;;;5170531;28;20029;-75
2022/05/28 12:33:26;;;;;;;5.15;1.30;;;21.40;44.90;;;;;;5180794;28;20053;-75
2022/05/28 12:36:05;;;;;;;4.07;1.33;;;21.50;44.10;;;;;;5184432;28;20527;-74
2022/05/28 12:38:43;;;;;;;2.78;1.10;;;21.50;45.20;;;;;;5197304;28;20052;-76
2022/05/28 12:41:19;;;;;;;3.53;1.10;;;21.40;41.60;;;;;;5185320;28;20230;-75
2022/05/28 12:44:10;;;;;;;3.50;1.30;;;21.50;45.50;;;;;;5182024;28;20045;-76
2022/05/28 12:46:49;;;;;;;6.65;1.40;;;22.10;43.70;;;;;;5189572;28;20608;-76
2022/05/28 12:49:29;;;;;;;3.80;1.60;;;22.60;44.60;;;;;;5175958;28;20053;-75
2022/05/28 12:52:19;;;;;;;4.57;1.27;;;22.60;42.90;;;;;;5194365;28;20847;-76
2022/05/28 12:55:35;;;;;;;3.35;1.30;;;22.40;42.40;;;;;;5189899;28;20048;-75
2022/05/28 12:58:21;;;;;;;3.05;1.17;;;22.10;42.20;;;;;;5191234;28;20045;-76
2022/05/28 13:00:58;;;;;;;6.57;1.20;;;21.60;44.20;;;;;;5190522;28;20441;-76
2022/05/28 13:03:43;;;;;;;4.00;1.73;;;21.70;44.60;;;;;;5190160;28;20050;-76
2022/05/28 13:06:43;;;;;;;3.78;1.83;;;22.10;43.70;;;;;;5174726;28;20048;-75
2022/05/28 13:09:22;;;;;;;4.57;1.50;;;22.30;42.60;;;;;;5177580;28;20037;-75
2022/05/28 13:12:10;;;;;;;2.53;1.08;;;22.20;42.90;;;;;;5130733;28;20048;-75
2022/05/28 13:15:05;;;;;;;3.92;1.73;;;22.20;43.40;;;;;;5171379;28;20508;-74
2022/05/28 13:21:43;;;;;;;4.95;1.50;;;21.60;44.40;;;;;;1637590;26;20064;-71
2022/05/28 13:24:41;;;;;;;5.93;1.15;;;21.60;43.20;;;;;;5097750;28;20054;-69
2022/05/28 13:27:35;;;;;;;5.20;1.30;;;21.00;44.30;;;;;;5118299;28;20502;-70
2022/05/28 13:30:20;;;;;;;1.77;1.02;;;21.00;45.00;;;;;;5116425;28;20346;-70
2022/05/28 13:33:08;;;;;;;5.13;1.95;;;21.70;43.90;;;;;;5121113;28;20046;-70
2022/05/28 13:35:50;;;;;;;4.25;1.10;;;21.90;44.50;;;;;;5129901;28;20059;-68
2022/05/28 13:38:29;;;;;;;3.42;1.10;;;21.70;44.10;;;;;;5106417;28;20447;-70
2022/05/28 13:41:11;;;;;;;2.75;0.90;;;21.70;44.30;;;;;;5099388;28;20059;-70
2022/05/28 13:43:53;;;;;;;3.15;1.25;;;21.50;44.70;;;;;;5115141;28;20057;-70
2022/05/28 13:46:28;;;;;;;4.70;1.25;;;20.80;44.00;;;;;;5116856;28;20046;-71
2022/05/28 13:49:04;;;;;;;8.23;1.50;;;20.40;44.90;;;;;;5121016;28;20046;-70
2022/05/28 13:51:58;;;;;;;8.10;1.35;;;20.10;45.70;;;;;;5111869;28;20050;-70
2022/05/28 13:54:30;;;;;;;5.93;1.08;;;20.00;46.80;;;;;;5122418;28;20119;-70
2022/05/28 13:57:06;;;;;;;5.55;1.23;;;19.70;47.70;;;;;;5111440;28;20051;-70